sensor_id;sensor_type;location;lat;lon;timestamp;P1;durP1;ratioP1;P2;durP2;ratioP2
9222;SDS011;7557;51.698;3.942;2023-09-08T00:00:23;1996.20;;;999.90;;
9222;SDS011;7557;51.698;3.942;2023-09-08T00:02:50;1999.90;;;999.90;;
9222;SDS011;7557;51.698;3.942;2023-09-08T00:05:17;1912.53;;;999.90;;
9222;SDS011;7557;51.698;3.942;2023-09-08T00:07:46;1922.25;;;999.90;;
9222;SDS011;7557;51.698;3.942;2023-09-08T00:10:13;1933.25;;;999.90;;
9222;SDS011;7557;51.698;3.942;2023-09-08T00:12:41;1998.50;;;999.90;;
9222;SDS011;7557;51.698;3.942;2023-09-08T00:15:09;1999.90;;;999.90;;
9222;SDS011;7557;51.698;3.942;2023-09-08T00:17:37;1999.90;;;999.90;;
9222;SDS011;7557;51.698;3.942;2023-09-08T00:20:05;1999.90;;;999.90;;
9222;SDS011;7557;51.698;3.942;2023-09-08T00:22:34;1999.90;;;999.90;;
9222;SDS011;7557;51.698;3.942;2023-09-08T00:25:04;1911.05;;;999.90;;
9222;SDS011;7557;51.698;3.942;2023-09-08T00:27:31;1754.40;;;999.90;;
9222;SDS011;7557;51.698;3.942;2023-09-08T00:29:59;1690.63;;;999.90;;
9222;SDS011;7557;51.698;3.942;2023-09-08T00:32:27;1590.03;;;999.90;;
9222;SDS011;7557;51.698;3.942;2023-09-08T00:34:54;1742.40;;;999.90;;
9222;SDS011;7557;51.698;3.942;2023-09-08T00:37:21;1755.28;;;999.90;;
9222;SDS011;7557;51.698;3.942;2023-09-08T00:39:49;1999.90;;;999.90;;
9222;SDS011;7557;51.698;3.942;2023-09-08T00:42:17;1999.90;;;999.90;;
9222;SDS011;7557;51.698;3.942;2023-09-08T00:48:07;1689.22;;;999.90;;
9222;SDS011;7557;51.698;3.942;2023-09-08T00:50:36;1817.72;;;999.90;;
9222;SDS011;7557;51.698;3.942;2023-09-08T00:53:04;1804.88;;;999.90;;
9222;SDS011;7557;51.698;3.942;2023-09-08T00:55:31;1984.68;;;999.90;;
9222;SDS011;7557;51.698;3.942;2023-09-08T00:58:01;1782.85;;;999.90;;
9222;SDS011;7557;51.698;3.942;2023-09-08T01:00:28;1845.00;;;999.90;;
9222;SDS011;7557;51.698;3.942;2023-09-08T01:02:57;1730.60;;;999.90;;
9222;SDS011;7557;51.698;3.942;2023-09-08T01:05:24;1761.65;;;999.90;;
9222;SDS011;7557;51.698;3.942;2023-09-08T01:07:51;1815.65;;;999.90;;
9222;SDS011;7557;51.698;3.942;2023-09-08T01:10:20;1808.00;;;999.90;;
9222;SDS011;7557;51.698;3.942;2023-09-08T01:12:48;1875.40;;;999.90;;
9222;SDS011;7557;51.698;3.942;2023-09-08T01:15:17;1866.95;;;999.90;;
9222;SDS011;7557;51.698;3.942;2023-09-08T01:17:44;1915.78;;;999.90;;
9222;SDS011;7557;51.698;3.942;2023-09-08T01:20:13;1921.93;;;999.90;;
9222;SDS011;7557;51.698;3.942;2023-09-08T01:22:59;1866.78;;;999.90;;
9222;SDS011;7557;51.698;3.942;2023-09-08T01:25:34;1805.72;;;999.90;;
9222;SDS011;7557;51.698;3.942;2023-09-08T01:28:06;1958.15;;;999.90;;
9222;SDS011;7557;51.698;3.942;2023-09-08T01:30:34;1933.82;;;999.90;;
9222;SDS011;7557;51.698;3.942;2023-09-08T01:33:03;1988.03;;;999.90;;
9222;SDS011;7557;51.698;3.942;2023-09-08T01:35:31;1999.90;;;999.90;;
9222;SDS011;7557;51.698;3.942;2023-09-08T01:37:58;1999.90;;;999.90;;
9222;SDS011;7557;51.698;3.942;2023-09-08T01:40:26;1997.38;;;999.90;;
9222;SDS011;7557;51.698;3.942;2023-09-08T01:42:54;1958.55;;;999.90;;
9222;SDS011;7557;51.698;3.942;2023-09-08T01:45:21;1981.68;;;999.90;;
9222;SDS011;7557;51.698;3.942;2023-09-08T01:47:49;1973.72;;;999.90;;
9222;SDS011;7557;51.698;3.942;2023-09-08T01:50:16;1999.90;;;999.90;;
9222;SDS011;7557;51.698;3.942;2023-09-08T01:52:47;1902.80;;;999.90;;
9222;SDS011;7557;51.698;3.942;2023-09-08T01:55:14;1854.00;;;999.90;;
9222;SDS011;7557;51.698;3.942;2023-09-08T01:57:42;1864.13;;;999.90;;
9222;SDS011;7557;51.698;3.942;2023-09-08T02:00:11;1894.68;;;999.90;;
9222;SDS011;7557;51.698;3.942;2023-09-08T02:02:39;1878.15;;;999.90;;
9222;SDS011;7557;51.698;3.942;2023-09-08T02:05:06;1784.07;;;999.90;;
9222;SDS011;7557;51.698;3.942;2023-09-08T02:07:34;1740.22;;;999.90;;
9222;SDS011;7557;51.698;3.942;2023-09-08T02:10:04;1577.53;;;999.90;;
9222;SDS011;7557;51.698;3.942;2023-09-08T02:12:32;1640.03;;;999.90;;
9222;SDS011;7557;51.698;3.942;2023-09-08T02:14:59;1595.18;;;999.90;;
9222;SDS011;7557;51.698;3.942;2023-09-08T02:17:28;1572.45;;;999.90;;
9222;SDS011;7557;51.698;3.942;2023-09-08T02:19:55;1698.75;;;999.90;;
9222;SDS011;7557;51.698;3.942;2023-09-08T02:22:22;1667.30;;;999.90;;
9222;SDS011;7557;51.698;3.942;2023-09-08T02:24:49;1396.10;;;999.90;;
9222;SDS011;7557;51.698;3.942;2023-09-08T02:27:17;1459.18;;;999.90;;
9222;SDS011;7557;51.698;3.942;2023-09-08T02:29:45;1346.78;;;999.90;;
9222;SDS011;7557;51.698;3.942;2023-09-08T02:32:13;1383.28;;;999.90;;
9222;SDS011;7557;51.698;3.942;2023-09-08T02:34:41;1454.63;;;999.90;;
9222;SDS011;7557;51.698;3.942;2023-09-08T02:37:09;1513.10;;;999.90;;
9222;SDS011;7557;51.698;3.942;2023-09-08T02:39:36;1454.97;;;999.90;;
9222;SDS011;7557;51.698;3.942;2023-09-08T02:42:03;1418.13;;;999.90;;
9222;SDS011;7557;51.698;3.942;2023-09-08T02:44:31;1444.95;;;999.90;;
9222;SDS011;7557;51.698;3.942;2023-09-08T02:46:58;1440.65;;;999.90;;
9222;SDS011;7557;51.698;3.942;2023-09-08T02:49:26;1381.95;;;999.90;;
9222;SDS011;7557;51.698;3.942;2023-09-08T02:51:54;1375.03;;;999.90;;
9222;SDS011;7557;51.698;3.942;2023-09-08T02:54:22;1369.32;;;999.90;;
9222;SDS011;7557;51.698;3.942;2023-09-08T02:56:49;1392.22;;;999.90;;
9222;SDS011;7557;51.698;3.942;2023-09-08T02:59:16;1220.85;;;999.90;;
9222;SDS011;7557;51.698;3.942;2023-09-08T03:01:43;1237.68;;;999.90;;
9222;SDS011;7557;51.698;3.942;2023-09-08T03:04:11;1223.13;;;999.90;;
9222;SDS011;7557;51.698;3.942;2023-09-08T03:06:38;1284.90;;;999.90;;
9222;SDS011;7557;51.698;3.942;2023-09-08T03:09:06;1271.03;;;999.90;;
9222;SDS011;7557;51.698;3.942;2023-09-08T03:11:34;1247.90;;;999.90;;
9222;SDS011;7557;51.698;3.942;2023-09-08T03:14:02;1401.10;;;999.90;;
9222;SDS011;7557;51.698;3.942;2023-09-08T03:16:29;1430.75;;;999.90;;
9222;SDS011;7557;51.698;3.942;2023-09-08T03:18:57;1524.63;;;999.90;;
9222;SDS011;7557;51.698;3.942;2023-09-08T03:21:24;1360.32;;;999.90;;
9222;SDS011;7557;51.698;3.942;2023-09-08T03:23:51;1287.30;;;999.90;;
9222;SDS011;7557;51.698;3.942;2023-09-08T03:26:20;1335.57;;;999.90;;
9222;SDS011;7557;51.698;3.942;2023-09-08T03:28:47;1419.13;;;999.90;;
9222;SDS011;7557;51.698;3.942;2023-09-08T03:31:15;1415.63;;;999.90;;
9222;SDS011;7557;51.698;3.942;2023-09-08T03:33:42;1392.07;;;999.90;;
9222;SDS011;7557;51.698;3.942;2023-09-08T03:36:09;1453.82;;;999.90;;
9222;SDS011;7557;51.698;3.942;2023-09-08T03:38:37;1506.88;;;999.90;;
9222;SDS011;7557;51.698;3.942;2023-09-08T03:41:06;1669.63;;;999.90;;
9222;SDS011;7557;51.698;3.942;2023-09-08T03:43:35;1870.72;;;999.90;;
9222;SDS011;7557;51.698;3.942;2023-09-08T03:46:02;1964.22;;;999.90;;
9222;SDS011;7557;51.698;3.942;2023-09-08T03:48:30;1999.90;;;999.90;;
9222;SDS011;7557;51.698;3.942;2023-09-08T03:50:58;1999.90;;;999.90;;
9222;SDS011;7557;51.698;3.942;2023-09-08T03:53:25;1999.90;;;999.90;;
9222;SDS011;7557;51.698;3.942;2023-09-08T03:55:52;1999.90;;;999.90;;
9222;SDS011;7557;51.698;3.942;2023-09-08T03:58:19;1999.90;;;999.90;;
9222;SDS011;7557;51.698;3.942;2023-09-08T04:00:48;1999.90;;;999.90;;
9222;SDS011;7557;51.698;3.942;2023-09-08T04:03:15;1999.90;;;999.90;;
9222;SDS011;7557;51.698;3.942;2023-09-08T04:05:43;1999.90;;;999.90;;
9222;SDS011;7557;51.698;3.942;2023-09-08T04:08:10;1999.90;;;999.90;;
9222;SDS011;7557;51.698;3.942;2023-09-08T04:10:37;1999.90;;;999.90;;
9222;SDS011;7557;51.698;3.942;2023-09-08T04:13:04;1975.53;;;999.90;;
9222;SDS011;7557;51.698;3.942;2023-09-08T04:15:32;1972.28;;;999.90;;
9222;SDS011;7557;51.698;3.942;2023-09-08T04:18:00;1967.95;;;999.90;;
9222;SDS011;7557;51.698;3.942;2023-09-08T04:20:28;1990.78;;;999.90;;
9222;SDS011;7557;51.698;3.942;2023-09-08T04:22:55;1904.70;;;999.90;;
9222;SDS011;7557;51.698;3.942;2023-09-08T04:25:22;1822.93;;;999.90;;
9222;SDS011;7557;51.698;3.942;2023-09-08T04:27:50;1855.80;;;999.90;;
9222;SDS011;7557;51.698;3.942;2023-09-08T04:30:17;1812.97;;;999.90;;
9222;SDS011;7557;51.698;3.942;2023-09-08T04:32:45;1928.85;;;999.90;;
9222;SDS011;7557;51.698;3.942;2023-09-08T04:35:14;1999.90;;;999.90;;
9222;SDS011;7557;51.698;3.942;2023-09-08T04:37:41;1999.90;;;999.90;;
9222;SDS011;7557;51.698;3.942;2023-09-08T04:40:09;1999.90;;;999.90;;
9222;SDS011;7557;51.698;3.942;2023-09-08T04:42:38;1999.90;;;999.90;;
9222;SDS011;7557;51.698;3.942;2023-09-08T04:45:05;1999.90;;;999.90;;
9222;SDS011;7557;51.698;3.942;2023-09-08T04:47:33;1999.90;;;999.90;;
9222;SDS011;7557;51.698;3.942;2023-09-08T04:50:00;1999.90;;;999.90;;
9222;SDS011;7557;51.698;3.942;2023-09-08T04:52:30;1999.90;;;999.90;;
9222;SDS011;7557;51.698;3.942;2023-09-08T04:54:57;1999.90;;;999.90;;
9222;SDS011;7557;51.698;3.942;2023-09-08T04:57:24;1999.90;;;999.90;;
9222;SDS011;7557;51.698;3.942;2023-09-08T04:59:52;1999.90;;;999.90;;
9222;SDS011;7557;51.698;3.942;2023-09-08T05:02:19;1999.90;;;999.90;;
9222;SDS011;7557;51.698;3.942;2023-09-08T05:04:47;1999.90;;;999.90;;
9222;SDS011;7557;51.698;3.942;2023-09-08T05:07:14;1999.90;;;999.90;;
9222;SDS011;7557;51.698;3.942;2023-09-08T05:09:44;1999.90;;;999.90;;
9222;SDS011;7557;51.698;3.942;2023-09-08T05:12:12;1999.90;;;999.90;;
9222;SDS011;7557;51.698;3.942;2023-09-08T05:14:39;1999.90;;;999.90;;
9222;SDS011;7557;51.698;3.942;2023-09-08T05:17:07;1999.90;;;999.90;;
9222;SDS011;7557;51.698;3.942;2023-09-08T05:19:34;1999.90;;;999.90;;
9222;SDS011;7557;51.698;3.942;2023-09-08T05:22:02;1999.90;;;999.90;;
9222;SDS011;7557;51.698;3.942;2023-09-08T05:24:32;1999.90;;;999.90;;
9222;SDS011;7557;51.698;3.942;2023-09-08T05:27:01;1999.90;;;999.90;;
9222;SDS011;7557;51.698;3.942;2023-09-08T05:29:29;1999.90;;;999.90;;
9222;SDS011;7557;51.698;3.942;2023-09-08T05:31:56;1999.90;;;999.90;;
9222;SDS011;7557;51.698;3.942;2023-09-08T05:34:24;1999.90;;;999.90;;
9222;SDS011;7557;51.698;3.942;2023-09-08T05:36:51;1999.90;;;999.90;;
9222;SDS011;7557;51.698;3.942;2023-09-08T05:39:18;1999.90;;;999.90;;
9222;SDS011;7557;51.698;3.942;2023-09-08T05:41:45;1999.90;;;999.90;;
9222;SDS011;7557;51.698;3.942;2023-09-08T05:44:14;1999.90;;;999.90;;
9222;SDS011;7557;51.698;3.942;2023-09-08T05:46:41;1999.90;;;999.90;;
9222;SDS011;7557;51.698;3.942;2023-09-08T05:49:09;1999.90;;;999.90;;
9222;SDS011;7557;51.698;3.942;2023-09-08T05:51:36;1999.90;;;999.90;;
9222;SDS011;7557;51.698;3.942;2023-09-08T05:54:03;1999.90;;;999.90;;
9222;SDS011;7557;51.698;3.942;2023-09-08T05:56:31;1999.90;;;999.90;;
9222;SDS011;7557;51.698;3.942;2023-09-08T05:59:00;1999.90;;;999.90;;
9222;SDS011;7557;51.698;3.942;2023-09-08T06:01:30;1999.90;;;999.90;;
9222;SDS011;7557;51.698;3.942;2023-09-08T06:03:58;1999.90;;;999.90;;
9222;SDS011;7557;51.698;3.942;2023-09-08T06:06:25;1999.90;;;999.90;;
9222;SDS011;7557;51.698;3.942;2023-09-08T06:08:53;1999.90;;;999.90;;
9222;SDS011;7557;51.698;3.942;2023-09-08T06:11:20;1999.90;;;999.90;;
9222;SDS011;7557;51.698;3.942;2023-09-08T06:13:48;1999.90;;;999.90;;
9222;SDS011;7557;51.698;3.942;2023-09-08T06:16:15;1999.90;;;999.90;;
9222;SDS011;7557;51.698;3.942;2023-09-08T06:18:43;1999.90;;;999.90;;
9222;SDS011;7557;51.698;3.942;2023-09-08T06:21:11;1999.90;;;999.90;;
9222;SDS011;7557;51.698;3.942;2023-09-08T06:23:39;1992.78;;;999.90;;
9222;SDS011;7557;51.698;3.942;2023-09-08T06:26:06;1965.40;;;999.90;;
9222;SDS011;7557;51.698;3.942;2023-09-08T06:28:33;1887.38;;;999.90;;
9222;SDS011;7557;51.698;3.942;2023-09-08T06:31:00;1999.90;;;999.90;;
9222;SDS011;7557;51.698;3.942;2023-09-08T06:33:28;1999.90;;;999.90;;
9222;SDS011;7557;51.698;3.942;2023-09-08T06:35:56;1999.90;;;999.90;;
9222;SDS011;7557;51.698;3.942;2023-09-08T06:38:24;1999.90;;;999.90;;
9222;SDS011;7557;51.698;3.942;2023-09-08T06:40:51;1999.90;;;999.90;;
9222;SDS011;7557;51.698;3.942;2023-09-08T06:43:19;1999.90;;;999.90;;
9222;SDS011;7557;51.698;3.942;2023-09-08T06:45:47;1999.90;;;999.90;;
9222;SDS011;7557;51.698;3.942;2023-09-08T06:48:15;1999.90;;;999.90;;
9222;SDS011;7557;51.698;3.942;2023-09-08T06:50:42;1999.90;;;999.90;;
9222;SDS011;7557;51.698;3.942;2023-09-08T06:53:11;1999.90;;;999.90;;
9222;SDS011;7557;51.698;3.942;2023-09-08T06:55:38;1999.90;;;999.90;;
9222;SDS011;7557;51.698;3.942;2023-09-08T06:58:05;1999.90;;;999.90;;
9222;SDS011;7557;51.698;3.942;2023-09-08T07:00:32;1999.90;;;999.90;;
9222;SDS011;7557;51.698;3.942;2023-09-08T07:03:00;1999.90;;;999.90;;
9222;SDS011;7557;51.698;3.942;2023-09-08T07:05:27;1999.90;;;999.90;;
9222;SDS011;7557;51.698;3.942;2023-09-08T07:07:54;1999.90;;;999.90;;
9222;SDS011;7557;51.698;3.942;2023-09-08T07:10:23;1999.90;;;999.90;;
9222;SDS011;7557;51.698;3.942;2023-09-08T07:12:50;1999.90;;;999.90;;
9222;SDS011;7557;51.698;3.942;2023-09-08T07:15:18;1999.90;;;999.90;;
9222;SDS011;7557;51.698;3.942;2023-09-08T07:17:45;1999.90;;;999.90;;
9222;SDS011;7557;51.698;3.942;2023-09-08T07:20:12;1999.90;;;999.90;;
9222;SDS011;7557;51.698;3.942;2023-09-08T07:22:40;1999.90;;;999.90;;
9222;SDS011;7557;51.698;3.942;2023-09-08T07:25:07;1999.90;;;999.90;;
9222;SDS011;7557;51.698;3.942;2023-09-08T07:27:37;1972.85;;;999.90;;
9222;SDS011;7557;51.698;3.942;2023-09-08T07:30:05;1999.90;;;999.90;;
9222;SDS011;7557;51.698;3.942;2023-09-08T07:32:33;1999.90;;;999.90;;
9222;SDS011;7557;51.698;3.942;2023-09-08T07:35:00;1727.15;;;999.90;;
9222;SDS011;7557;51.698;3.942;2023-09-08T07:37:27;1616.47;;;999.90;;
9222;SDS011;7557;51.698;3.942;2023-09-08T07:39:54;1703.47;;;999.90;;
9222;SDS011;7557;51.698;3.942;2023-09-08T07:42:22;1729.82;;;999.90;;
9222;SDS011;7557;51.698;3.942;2023-09-08T07:44:52;1927.38;;;999.90;;
9222;SDS011;7557;51.698;3.942;2023-09-08T07:47:20;1847.70;;;999.90;;
9222;SDS011;7557;51.698;3.942;2023-09-08T07:49:47;1857.10;;;999.90;;
9222;SDS011;7557;51.698;3.942;2023-09-08T07:52:15;1952.35;;;999.90;;
9222;SDS011;7557;51.698;3.942;2023-09-08T07:54:42;1972.30;;;999.90;;
9222;SDS011;7557;51.698;3.942;2023-09-08T07:57:09;1994.13;;;999.90;;
9222;SDS011;7557;51.698;3.942;2023-09-08T07:59:37;1999.90;;;999.90;;
9222;SDS011;7557;51.698;3.942;2023-09-08T08:02:06;1969.20;;;999.90;;
9222;SDS011;7557;51.698;3.942;2023-09-08T08:04:33;1864.03;;;999.90;;
9222;SDS011;7557;51.698;3.942;2023-09-08T08:07:01;1813.15;;;999.90;;
9222;SDS011;7557;51.698;3.942;2023-09-08T08:09:28;1867.60;;;999.90;;
9222;SDS011;7557;51.698;3.942;2023-09-08T08:11:55;1938.50;;;999.90;;
9222;SDS011;7557;51.698;3.942;2023-09-08T08:14:22;1693.63;;;999.90;;
9222;SDS011;7557;51.698;3.942;2023-09-08T08:16:50;1701.20;;;999.90;;
9222;SDS011;7557;51.698;3.942;2023-09-08T08:19:18;1698.97;;;999.90;;
9222;SDS011;7557;51.698;3.942;2023-09-08T08:21:46;1420.88;;;999.90;;
9222;SDS011;7557;51.698;3.942;2023-09-08T08:24:13;1344.90;;;999.90;;
9222;SDS011;7557;51.698;3.942;2023-09-08T08:26:41;1376.68;;;999.90;;
9222;SDS011;7557;51.698;3.942;2023-09-08T08:29:10;1140.90;;;999.90;;
9222;SDS011;7557;51.698;3.942;2023-09-08T08:31:38;1041.15;;;960.28;;
9222;SDS011;7557;51.698;3.942;2023-09-08T08:34:05;1113.63;;;999.10;;
9222;SDS011;7557;51.698;3.942;2023-09-08T08:36:35;1127.70;;;999.90;;
9222;SDS011;7557;51.698;3.942;2023-09-08T08:39:03;1068.32;;;980.80;;
9222;SDS011;7557;51.698;3.942;2023-09-08T08:41:30;1052.78;;;970.63;;
9222;SDS011;7557;51.698;3.942;2023-09-08T08:44:03;1032.65;;;955.05;;
9222;SDS011;7557;51.698;3.942;2023-09-08T08:46:32;1026.63;;;948.63;;
9222;SDS011;7557;51.698;3.942;2023-09-08T08:49:01;1028.60;;;950.42;;
9222;SDS011;7557;51.698;3.942;2023-09-08T08:51:30;1023.40;;;944.50;;
9222;SDS011;7557;51.698;3.942;2023-09-08T08:54:00;1038.32;;;956.80;;
9222;SDS011;7557;51.698;3.942;2023-09-08T08:56:29;1027.35;;;950.45;;
9222;SDS011;7557;51.698;3.942;2023-09-08T08:58:58;1041.18;;;960.78;;
9222;SDS011;7557;51.698;3.942;2023-09-08T09:01:27;1016.75;;;940.63;;
9222;SDS011;7557;51.698;3.942;2023-09-08T09:03:56;1069.93;;;980.35;;
9222;SDS011;7557;51.698;3.942;2023-09-08T09:06:24;1026.95;;;948.05;;
9222;SDS011;7557;51.698;3.942;2023-09-08T09:08:51;1058.95;;;973.92;;
9222;SDS011;7557;51.698;3.942;2023-09-08T09:11:26;1020.72;;;941.83;;
9222;SDS011;7557;51.698;3.942;2023-09-08T09:13:53;1037.75;;;957.58;;
9222;SDS011;7557;51.698;3.942;2023-09-08T09:16:20;1009.10;;;934.67;;
9222;SDS011;7557;51.698;3.942;2023-09-08T09:18:55;1009.97;;;935.28;;
9222;SDS011;7557;51.698;3.942;2023-09-08T09:21:23;971.60;;;903.58;;
9222;SDS011;7557;51.698;3.942;2023-09-08T09:23:50;1036.45;;;956.25;;
9222;SDS011;7557;51.698;3.942;2023-09-08T09:26:26;958.30;;;893.60;;
9222;SDS011;7557;51.698;3.942;2023-09-08T09:28:53;1002.88;;;930.72;;
9222;SDS011;7557;51.698;3.942;2023-09-08T09:31:23;958.85;;;893.30;;
9222;SDS011;7557;51.698;3.942;2023-09-08T09:34:00;1000.90;;;927.58;;
9222;SDS011;7557;51.698;3.942;2023-09-08T09:36:30;926.03;;;863.38;;
9222;SDS011;7557;51.698;3.942;2023-09-08T09:38:58;643.50;;;613.33;;
9222;SDS011;7557;51.698;3.942;2023-09-08T09:41:28;492.65;;;472.63;;
9222;SDS011;7557;51.698;3.942;2023-09-08T09:43:56;561.13;;;536.80;;
9222;SDS011;7557;51.698;3.942;2023-09-08T09:46:24;639.42;;;608.10;;
9222;SDS011;7557;51.698;3.942;2023-09-08T09:48:54;289.48;;;279.02;;
9222;SDS011;7557;51.698;3.942;2023-09-08T09:51:22;472.98;;;453.02;;
9222;SDS011;7557;51.698;3.942;2023-09-08T09:53:50;429.52;;;412.40;;
9222;SDS011;7557;51.698;3.942;2023-09-08T09:56:17;561.10;;;536.42;;
9222;SDS011;7557;51.698;3.942;2023-09-08T09:58:46;363.77;;;350.10;;
9222;SDS011;7557;51.698;3.942;2023-09-08T10:01:14;729.47;;;691.38;;
9222;SDS011;7557;51.698;3.942;2023-09-08T10:03:43;718.38;;;681.88;;
9222;SDS011;7557;51.698;3.942;2023-09-08T10:06:11;722.63;;;685.05;;
9222;SDS011;7557;51.698;3.942;2023-09-08T10:08:41;323.70;;;311.92;;
9222;SDS011;7557;51.698;3.942;2023-09-08T10:11:09;320.65;;;308.88;;
9222;SDS011;7557;51.698;3.942;2023-09-08T10:13:39;319.10;;;307.42;;
9222;SDS011;7557;51.698;3.942;2023-09-08T10:16:11;420.63;;;403.83;;
9222;SDS011;7557;51.698;3.942;2023-09-08T10:18:42;498.40;;;476.90;;
9222;SDS011;7557;51.698;3.942;2023-09-08T10:21:12;402.48;;;387.15;;
9222;SDS011;7557;51.698;3.942;2023-09-08T10:23:44;340.92;;;327.90;;
9222;SDS011;7557;51.698;3.942;2023-09-08T10:26:18;267.45;;;257.67;;
9222;SDS011;7557;51.698;3.942;2023-09-08T10:28:53;332.38;;;319.90;;
9222;SDS011;7557;51.698;3.942;2023-09-08T10:31:24;242.15;;;233.15;;
9222;SDS011;7557;51.698;3.942;2023-09-08T10:33:53;313.92;;;302.25;;
9222;SDS011;7557;51.698;3.942;2023-09-08T10:36:22;230.55;;;221.98;;
9222;SDS011;7557;51.698;3.942;2023-09-08T10:38:50;368.98;;;355.10;;
9222;SDS011;7557;51.698;3.942;2023-09-08T10:41:26;227.98;;;219.60;;
9222;SDS011;7557;51.698;3.942;2023-09-08T10:43:57;148.18;;;142.63;;
9222;SDS011;7557;51.698;3.942;2023-09-08T10:46:30;363.90;;;350.23;;
9222;SDS011;7557;51.698;3.942;2023-09-08T10:49:01;333.48;;;321.15;;
9222;SDS011;7557;51.698;3.942;2023-09-08T10:51:29;166.63;;;160.60;;
9222;SDS011;7557;51.698;3.942;2023-09-08T10:53:57;225.43;;;217.18;;
9222;SDS011;7557;51.698;3.942;2023-09-08T10:56:27;75.75;;;72.90;;
9222;SDS011;7557;51.698;3.942;2023-09-08T10:58:55;65.53;;;63.03;;
9222;SDS011;7557;51.698;3.942;2023-09-08T11:01:26;32.40;;;30.75;;
9222;SDS011;7557;51.698;3.942;2023-09-08T11:03:57;37.58;;;35.92;;
9222;SDS011;7557;51.698;3.942;2023-09-08T11:06:25;191.70;;;184.60;;
9222;SDS011;7557;51.698;3.942;2023-09-08T11:08:55;78.28;;;75.03;;
9222;SDS011;7557;51.698;3.942;2023-09-08T11:11:32;53.28;;;50.78;;
9222;SDS011;7557;51.698;3.942;2023-09-08T11:14:02;44.13;;;42.35;;
9222;SDS011;7557;51.698;3.942;2023-09-08T11:16:30;66.43;;;63.88;;
9222;SDS011;7557;51.698;3.942;2023-09-08T11:18:59;76.68;;;73.90;;
9222;SDS011;7557;51.698;3.942;2023-09-08T11:21:29;105.78;;;101.63;;
9222;SDS011;7557;51.698;3.942;2023-09-08T11:24:00;8.13;;;7.53;;
9222;SDS011;7557;51.698;3.942;2023-09-08T11:26:27;64.88;;;62.58;;
9222;SDS011;7557;51.698;3.942;2023-09-08T11:28:55;150.55;;;145.13;;
9222;SDS011;7557;51.698;3.942;2023-09-08T11:31:23;11.57;;;11.15;;
9222;SDS011;7557;51.698;3.942;2023-09-08T11:33:54;100.13;;;96.65;;
9222;SDS011;7557;51.698;3.942;2023-09-08T11:36:23;171.52;;;164.77;;
9222;SDS011;7557;51.698;3.942;2023-09-08T11:38:50;24.52;;;23.58;;
9222;SDS011;7557;51.698;3.942;2023-09-08T11:41:19;8.10;;;7.70;;
9222;SDS011;7557;51.698;3.942;2023-09-08T11:43:49;8.60;;;8.20;;
9222;SDS011;7557;51.698;3.942;2023-09-08T11:46:17;8.75;;;8.25;;
9222;SDS011;7557;51.698;3.942;2023-09-08T11:48:44;8.57;;;7.97;;
9222;SDS011;7557;51.698;3.942;2023-09-08T11:51:13;11.45;;;10.88;;
9222;SDS011;7557;51.698;3.942;2023-09-08T11:53:42;75.82;;;73.18;;
9222;SDS011;7557;51.698;3.942;2023-09-08T11:56:10;6.15;;;5.85;;
9222;SDS011;7557;51.698;3.942;2023-09-08T11:58:38;39.70;;;38.25;;
9222;SDS011;7557;51.698;3.942;2023-09-08T12:01:05;6.40;;;6.18;;
9222;SDS011;7557;51.698;3.942;2023-09-08T12:03:35;12.30;;;11.63;;
9222;SDS011;7557;51.698;3.942;2023-09-08T12:06:18;4.38;;;4.10;;
9222;SDS011;7557;51.698;3.942;2023-09-08T12:08:47;5.70;;;5.28;;
9222;SDS011;7557;51.698;3.942;2023-09-08T12:11:14;4.93;;;4.55;;
9222;SDS011;7557;51.698;3.942;2023-09-08T12:13:42;6.68;;;6.32;;
9222;SDS011;7557;51.698;3.942;2023-09-08T12:16:17;4.28;;;4.05;;
9222;SDS011;7557;51.698;3.942;2023-09-08T12:18:45;7.10;;;6.70;;
9222;SDS011;7557;51.698;3.942;2023-09-08T12:21:13;8.00;;;7.70;;
9222;SDS011;7557;51.698;3.942;2023-09-08T12:23:49;24.98;;;24.08;;
9222;SDS011;7557;51.698;3.942;2023-09-08T12:26:17;4.03;;;3.83;;
9222;SDS011;7557;51.698;3.942;2023-09-08T12:28:45;11.10;;;10.43;;
9222;SDS011;7557;51.698;3.942;2023-09-08T12:31:13;4.43;;;3.90;;
9222;SDS011;7557;51.698;3.942;2023-09-08T12:33:41;4.53;;;4.10;;
9222;SDS011;7557;51.698;3.942;2023-09-08T12:36:09;6.18;;;5.63;;
9222;SDS011;7557;51.698;3.942;2023-09-08T12:38:37;47.10;;;45.03;;
9222;SDS011;7557;51.698;3.942;2023-09-08T12:41:06;1999.90;;;999.90;;
9222;SDS011;7557;51.698;3.942;2023-09-08T12:43:33;1999.90;;;999.90;;
9222;SDS011;7557;51.698;3.942;2023-09-08T12:46:00;1999.90;;;999.90;;
9222;SDS011;7557;51.698;3.942;2023-09-08T12:48:28;1999.90;;;999.90;;
9222;SDS011;7557;51.698;3.942;2023-09-08T12:50:55;1999.90;;;999.90;;
9222;SDS011;7557;51.698;3.942;2023-09-08T12:53:23;1837.72;;;999.90;;
9222;SDS011;7557;51.698;3.942;2023-09-08T12:55:50;1587.68;;;999.90;;
9222;SDS011;7557;51.698;3.942;2023-09-08T12:58:20;1469.15;;;999.90;;
9222;SDS011;7557;51.698;3.942;2023-09-08T13:00:47;1368.80;;;999.90;;
9222;SDS011;7557;51.698;3.942;2023-09-08T13:03:15;1520.63;;;999.90;;
9222;SDS011;7557;51.698;3.942;2023-09-08T13:05:42;1519.97;;;999.90;;
9222;SDS011;7557;51.698;3.942;2023-09-08T13:08:10;1519.40;;;999.90;;
9222;SDS011;7557;51.698;3.942;2023-09-08T13:10:40;1388.53;;;999.90;;
9222;SDS011;7557;51.698;3.942;2023-09-08T13:13:07;1238.40;;;999.90;;
9222;SDS011;7557;51.698;3.942;2023-09-08T13:15:39;1325.78;;;999.90;;
9222;SDS011;7557;51.698;3.942;2023-09-08T13:18:07;1329.65;;;999.90;;
9222;SDS011;7557;51.698;3.942;2023-09-08T13:20:35;1348.00;;;999.90;;
9222;SDS011;7557;51.698;3.942;2023-09-08T13:23:02;1405.75;;;999.90;;
9222;SDS011;7557;51.698;3.942;2023-09-08T13:25:29;1286.55;;;999.90;;
9222;SDS011;7557;51.698;3.942;2023-09-08T13:27:57;1170.47;;;999.90;;
9222;SDS011;7557;51.698;3.942;2023-09-08T13:30:24;1420.55;;;999.90;;
9222;SDS011;7557;51.698;3.942;2023-09-08T13:32:54;1209.32;;;999.90;;
9222;SDS011;7557;51.698;3.942;2023-09-08T13:35:22;1287.90;;;999.90;;
9222;SDS011;7557;51.698;3.942;2023-09-08T13:37:49;1287.88;;;999.90;;
9222;SDS011;7557;51.698;3.942;2023-09-08T13:40:16;1404.50;;;999.90;;
9222;SDS011;7557;51.698;3.942;2023-09-08T13:42:44;1348.35;;;999.90;;
9222;SDS011;7557;51.698;3.942;2023-09-08T13:45:11;1231.50;;;999.90;;
9222;SDS011;7557;51.698;3.942;2023-09-08T13:47:38;1205.78;;;999.90;;
9222;SDS011;7557;51.698;3.942;2023-09-08T13:50:07;1251.07;;;999.90;;
9222;SDS011;7557;51.698;3.942;2023-09-08T13:52:35;1429.97;;;999.90;;
9222;SDS011;7557;51.698;3.942;2023-09-08T13:55:04;1279.93;;;999.90;;
9222;SDS011;7557;51.698;3.942;2023-09-08T13:57:32;1568.35;;;999.90;;
9222;SDS011;7557;51.698;3.942;2023-09-08T13:59:59;1576.53;;;999.90;;
9222;SDS011;7557;51.698;3.942;2023-09-08T14:02:26;1251.03;;;999.90;;
9222;SDS011;7557;51.698;3.942;2023-09-08T14:04:54;1587.85;;;999.90;;
9222;SDS011;7557;51.698;3.942;2023-09-08T14:07:22;1426.68;;;999.90;;
9222;SDS011;7557;51.698;3.942;2023-09-08T14:09:50;1206.63;;;999.90;;
9222;SDS011;7557;51.698;3.942;2023-09-08T14:12:17;1173.63;;;999.90;;
9222;SDS011;7557;51.698;3.942;2023-09-08T14:14:45;1153.15;;;999.90;;
9222;SDS011;7557;51.698;3.942;2023-09-08T14:17:12;1057.10;;;968.63;;
9222;SDS011;7557;51.698;3.942;2023-09-08T14:19:40;1188.45;;;999.90;;
9222;SDS011;7557;51.698;3.942;2023-09-08T14:22:07;716.85;;;679.67;;
9222;SDS011;7557;51.698;3.942;2023-09-08T14:24:37;548.55;;;524.45;;